sensor_id;sensor_type;location;lat;lon;timestamp;temperature;humidity
77100;SHT31;66602;48.922;2.414;2023-04-03T00:01:12;6.58;81.84
77100;SHT31;66602;48.922;2.414;2023-04-03T00:03:37;6.58;81.68
77100;SHT31;66602;48.922;2.414;2023-04-03T00:06:03;6.61;81.57
77100;SHT31;66602;48.922;2.414;2023-04-03T00:08:30;6.58;81.70
77100;SHT31;66602;48.922;2.414;2023-04-03T00:10:57;6.64;81.60
77100;SHT31;66602;48.922;2.414;2023-04-03T00:13:23;6.63;81.77
77100;SHT31;66602;48.922;2.414;2023-04-03T00:15:49;6.61;81.49
77100;SHT31;66602;48.922;2.414;2023-04-03T00:18:14;6.59;81.57
77100;SHT31;66602;48.922;2.414;2023-04-03T00:20:40;6.58;81.46
77100;SHT31;66602;48.922;2.414;2023-04-03T00:23:06;6.54;81.58
77100;SHT31;66602;48.922;2.414;2023-04-03T00:25:32;6.55;81.63
77100;SHT31;66602;48.922;2.414;2023-04-03T00:27:57;6.51;81.70
77100;SHT31;66602;48.922;2.414;2023-04-03T00:30:23;6.51;81.86
77100;SHT31;66602;48.922;2.414;2023-04-03T00:32:49;6.54;81.61
77100;SHT31;66602;48.922;2.414;2023-04-03T00:35:15;6.55;81.39
77100;SHT31;66602;48.922;2.414;2023-04-03T00:37:44;6.54;81.49
77100;SHT31;66602;48.922;2.414;2023-04-03T00:40:11;6.55;81.46
77100;SHT31;66602;48.922;2.414;2023-04-03T00:42:39;6.54;81.19
77100;SHT31;66602;48.922;2.414;2023-04-03T00:47:31;6.49;81.47
77100;SHT31;66602;48.922;2.414;2023-04-03T00:49:57;6.49;81.61
77100;SHT31;66602;48.922;2.414;2023-04-03T00:52:26;6.47;81.32
77100;SHT31;66602;48.922;2.414;2023-04-03T00:54:57;6.49;81.71
77100;SHT31;66602;48.922;2.414;2023-04-03T00:57:23;6.51;81.83
77100;SHT31;66602;48.922;2.414;2023-04-03T00:59:54;6.49;81.70
77100;SHT31;66602;48.922;2.414;2023-04-03T01:02:21;6.47;82.25
77100;SHT31;66602;48.922;2.414;2023-04-03T01:04:46;6.45;82.11
77100;SHT31;66602;48.922;2.414;2023-04-03T01:07:27;6.47;82.05
77100;SHT31;66602;48.922;2.414;2023-04-03T01:09:57;6.42;82.55
77100;SHT31;66602;48.922;2.414;2023-04-03T01:12:26;6.41;82.25
77100;SHT31;66602;48.922;2.414;2023-04-03T01:14:54;6.41;82.47
77100;SHT31;66602;48.922;2.414;2023-04-03T01:17:46;6.41;82.37
77100;SHT31;66602;48.922;2.414;2023-04-03T01:22:45;6.35;82.70
77100;SHT31;66602;48.922;2.414;2023-04-03T01:25:13;6.31;82.93
77100;SHT31;66602;48.922;2.414;2023-04-03T01:27:38;6.30;83.14
77100;SHT31;66602;48.922;2.414;2023-04-03T01:30:05;6.31;83.15
77100;SHT31;66602;48.922;2.414;2023-04-03T01:32:31;6.25;83.25
77100;SHT31;66602;48.922;2.414;2023-04-03T01:34:56;6.23;83.02
77100;SHT31;66602;48.922;2.414;2023-04-03T01:37:21;6.21;83.28
77100;SHT31;66602;48.922;2.414;2023-04-03T01:39:47;6.17;83.14
77100;SHT31;66602;48.922;2.414;2023-04-03T01:42:12;6.20;83.69
77100;SHT31;66602;48.922;2.414;2023-04-03T01:44:38;6.18;83.50
77100;SHT31;66602;48.922;2.414;2023-04-03T01:47:05;6.20;83.31
77100;SHT31;66602;48.922;2.414;2023-04-03T01:49:32;6.17;82.98
77100;SHT31;66602;48.922;2.414;2023-04-03T01:51:57;6.20;82.86
77100;SHT31;66602;48.922;2.414;2023-04-03T01:54:23;6.16;82.83
77100;SHT31;66602;48.922;2.414;2023-04-03T01:56:48;6.17;82.53
77100;SHT31;66602;48.922;2.414;2023-04-03T01:59:14;6.11;82.38
77100;SHT31;66602;48.922;2.414;2023-04-03T02:01:42;6.13;82.72
77100;SHT31;66602;48.922;2.414;2023-04-03T02:04:10;6.13;82.74
77100;SHT31;66602;48.922;2.414;2023-04-03T02:06:36;6.11;82.93
77100;SHT31;66602;48.922;2.414;2023-04-03T02:09:01;6.10;82.60
77100;SHT31;66602;48.922;2.414;2023-04-03T02:11:27;6.09;82.47
77100;SHT31;66602;48.922;2.414;2023-04-03T02:13:52;6.11;82.14
77100;SHT31;66602;48.922;2.414;2023-04-03T02:16:18;6.10;82.23
77100;SHT31;66602;48.922;2.414;2023-04-03T02:18:43;6.10;82.14
77100;SHT31;66602;48.922;2.414;2023-04-03T02:21:08;6.14;81.96
77100;SHT31;66602;48.922;2.414;2023-04-03T02:23:34;6.13;81.82
77100;SHT31;66602;48.922;2.414;2023-04-03T02:26:12;6.14;82.35
77100;SHT31;66602;48.922;2.414;2023-04-03T02:28:39;6.10;82.19
77100;SHT31;66602;48.922;2.414;2023-04-03T02:31:06;6.16;81.94
77100;SHT31;66602;48.922;2.414;2023-04-03T02:33:32;6.18;81.96
77100;SHT31;66602;48.922;2.414;2023-04-03T02:35:58;6.13;81.59
77100;SHT31;66602;48.922;2.414;2023-04-03T02:38:24;6.11;81.67
77100;SHT31;66602;48.922;2.414;2023-04-03T02:40:50;6.13;81.40
77100;SHT31;66602;48.922;2.414;2023-04-03T02:43:16;6.11;81.43
77100;SHT31;66602;48.922;2.414;2023-04-03T02:45:42;6.07;81.53
77100;SHT31;66602;48.922;2.414;2023-04-03T02:48:08;6.07;81.40
77100;SHT31;66602;48.922;2.414;2023-04-03T02:50:33;6.09;81.81
77100;SHT31;66602;48.922;2.414;2023-04-03T02:52:59;6.09;81.68
77100;SHT31;66602;48.922;2.414;2023-04-03T02:55:24;6.07;81.61
77100;SHT31;66602;48.922;2.414;2023-04-03T02:57:50;6.06;81.44
77100;SHT31;66602;48.922;2.414;2023-04-03T03:00:16;6.06;82.20
77100;SHT31;66602;48.922;2.414;2023-04-03T03:02:41;6.04;81.91
77100;SHT31;66602;48.922;2.414;2023-04-03T03:05:07;6.02;81.78
77100;SHT31;66602;48.922;2.414;2023-04-03T03:07:33;6.06;81.15
77100;SHT31;66602;48.922;2.414;2023-04-03T03:09:58;6.02;80.99
77100;SHT31;66602;48.922;2.414;2023-04-03T03:12:24;6.04;81.40
77100;SHT31;66602;48.922;2.414;2023-04-03T03:14:50;6.07;80.81
77100;SHT31;66602;48.922;2.414;2023-04-03T03:17:16;6.09;80.82
77100;SHT31;66602;48.922;2.414;2023-04-03T03:19:42;6.03;80.86
77100;SHT31;66602;48.922;2.414;2023-04-03T03:22:07;6.00;80.99
77100;SHT31;66602;48.922;2.414;2023-04-03T03:24:33;6.03;80.57
77100;SHT31;66602;48.922;2.414;2023-04-03T03:26:58;6.00;80.13
77100;SHT31;66602;48.922;2.414;2023-04-03T03:29:24;5.96;80.20
77100;SHT31;66602;48.922;2.414;2023-04-03T03:31:49;5.86;80.50
77100;SHT31;66602;48.922;2.414;2023-04-03T03:34:15;5.87;80.35
77100;SHT31;66602;48.922;2.414;2023-04-03T03:36:40;5.85;80.09
77100;SHT31;66602;48.922;2.414;2023-04-03T03:39:06;5.87;79.17
77100;SHT31;66602;48.922;2.414;2023-04-03T03:41:32;5.87;79.62
77100;SHT31;66602;48.922;2.414;2023-04-03T03:43:58;5.86;79.48
77100;SHT31;66602;48.922;2.414;2023-04-03T03:46:23;5.85;78.96
77100;SHT31;66602;48.922;2.414;2023-04-03T03:48:49;5.86;79.10
77100;SHT31;66602;48.922;2.414;2023-04-03T03:51:14;5.89;78.50
77100;SHT31;66602;48.922;2.414;2023-04-03T03:53:40;5.87;78.30
77100;SHT31;66602;48.922;2.414;2023-04-03T03:56:06;5.90;77.97
77100;SHT31;66602;48.922;2.414;2023-04-03T03:58:32;5.86;78.05
77100;SHT31;66602;48.922;2.414;2023-04-03T04:01:01;5.85;78.22
77100;SHT31;66602;48.922;2.414;2023-04-03T04:03:27;5.87;77.82
77100;SHT31;66602;48.922;2.414;2023-04-03T04:05:53;5.87;76.70
77100;SHT31;66602;48.922;2.414;2023-04-03T04:08:18;5.86;77.46
77100;SHT31;66602;48.922;2.414;2023-04-03T04:10:44;5.85;77.16
77100;SHT31;66602;48.922;2.414;2023-04-03T04:13:09;5.85;77.16
77100;SHT31;66602;48.922;2.414;2023-04-03T04:15:35;5.80;77.23
77100;SHT31;66602;48.922;2.414;2023-04-03T04:18:01;5.75;77.52
77100;SHT31;66602;48.922;2.414;2023-04-03T04:20:26;5.73;77.53
77100;SHT31;66602;48.922;2.414;2023-04-03T04:22:52;5.76;77.10
77100;SHT31;66602;48.922;2.414;2023-04-03T04:25:18;5.77;76.04
77100;SHT31;66602;48.922;2.414;2023-04-03T04:27:43;5.77;76.38
77100;SHT31;66602;48.922;2.414;2023-04-03T04:30:10;5.75;75.09
77100;SHT31;66602;48.922;2.414;2023-04-03T04:32:36;5.69;74.57
77100;SHT31;66602;48.922;2.414;2023-04-03T04:35:02;5.66;74.95
77100;SHT31;66602;48.922;2.414;2023-04-03T04:37:29;5.66;74.71
77100;SHT31;66602;48.922;2.414;2023-04-03T04:39:54;5.59;74.45
77100;SHT31;66602;48.922;2.414;2023-04-03T04:42:20;5.58;74.40
77100;SHT31;66602;48.922;2.414;2023-04-03T04:44:46;5.59;73.94
77100;SHT31;66602;48.922;2.414;2023-04-03T04:47:11;5.54;74.22
77100;SHT31;66602;48.922;2.414;2023-04-03T04:49:37;5.52;74.15
77100;SHT31;66602;48.922;2.414;2023-04-03T04:52:02;5.52;74.22
77100;SHT31;66602;48.922;2.414;2023-04-03T04:54:28;5.56;74.05
77100;SHT31;66602;48.922;2.414;2023-04-03T04:56:53;5.52;73.77
77100;SHT31;66602;48.922;2.414;2023-04-03T04:59:19;5.48;74.78
77100;SHT31;66602;48.922;2.414;2023-04-03T05:01:44;5.49;73.36
77100;SHT31;66602;48.922;2.414;2023-04-03T05:04:10;5.49;73.57
77100;SHT31;66602;48.922;2.414;2023-04-03T05:06:37;5.48;72.82
77100;SHT31;66602;48.922;2.414;2023-04-03T05:09:04;5.46;73.33
77100;SHT31;66602;48.922;2.414;2023-04-03T05:11:30;5.44;73.00
77100;SHT31;66602;48.922;2.414;2023-04-03T05:13:56;5.42;72.84
77100;SHT31;66602;48.922;2.414;2023-04-03T05:16:21;5.41;73.32
77100;SHT31;66602;48.922;2.414;2023-04-03T05:18:47;5.39;73.18
77100;SHT31;66602;48.922;2.414;2023-04-03T05:21:13;5.44;73.00
77100;SHT31;66602;48.922;2.414;2023-04-03T05:23:38;5.44;72.71
77100;SHT31;66602;48.922;2.414;2023-04-03T05:26:04;5.48;72.76
77100;SHT31;66602;48.922;2.414;2023-04-03T05:28:31;5.45;72.62
77100;SHT31;66602;48.922;2.414;2023-04-03T05:30:58;5.45;72.32
77100;SHT31;66602;48.922;2.414;2023-04-03T05:33:24;5.51;71.62
77100;SHT31;66602;48.922;2.414;2023-04-03T05:35:52;5.49;72.61
77100;SHT31;66602;48.922;2.414;2023-04-03T05:38:17;5.51;72.20
77100;SHT31;66602;48.922;2.414;2023-04-03T05:40:43;5.48;72.15
77100;SHT31;66602;48.922;2.414;2023-04-03T05:43:09;5.46;71.91
77100;SHT31;66602;48.922;2.414;2023-04-03T05:45:35;5.46;72.82
77100;SHT31;66602;48.922;2.414;2023-04-03T05:48:01;5.48;72.39
77100;SHT31;66602;48.922;2.414;2023-04-03T05:50:26;5.46;72.54
77100;SHT31;66602;48.922;2.414;2023-04-03T05:52:55;5.48;72.43
77100;SHT31;66602;48.922;2.414;2023-04-03T05:55:21;5.51;72.91
77100;SHT31;66602;48.922;2.414;2023-04-03T05:57:47;5.52;72.80
77100;SHT31;66602;48.922;2.414;2023-04-03T06:00:14;5.51;72.32
77100;SHT31;66602;48.922;2.414;2023-04-03T06:02:43;5.54;71.75
77100;SHT31;66602;48.922;2.414;2023-04-03T06:05:09;5.58;71.28
77100;SHT31;66602;48.922;2.414;2023-04-03T06:07:36;5.58;72.12
77100;SHT31;66602;48.922;2.414;2023-04-03T06:10:03;5.56;71.47
77100;SHT31;66602;48.922;2.414;2023-04-03T06:12:28;5.63;71.59
77100;SHT31;66602;48.922;2.414;2023-04-03T06:14:55;5.65;71.52
77100;SHT31;66602;48.922;2.414;2023-04-03T06:17:20;5.66;71.82
77100;SHT31;66602;48.922;2.414;2023-04-03T06:19:46;5.72;71.11
77100;SHT31;66602;48.922;2.414;2023-04-03T06:22:12;5.76;69.99
77100;SHT31;66602;48.922;2.414;2023-04-03T06:24:38;5.79;71.08
77100;SHT31;66602;48.922;2.414;2023-04-03T06:27:04;5.85;71.61
77100;SHT31;66602;48.922;2.414;2023-04-03T06:29:30;5.92;70.50
77100;SHT31;66602;48.922;2.414;2023-04-03T06:31:56;5.96;71.07
77100;SHT31;66602;48.922;2.414;2023-04-03T06:34:21;6.03;70.79
77100;SHT31;66602;48.922;2.414;2023-04-03T06:36:47;6.03;69.40
77100;SHT31;66602;48.922;2.414;2023-04-03T06:39:19;6.03;69.81
77100;SHT31;66602;48.922;2.414;2023-04-03T06:41:53;6.06;69.61
77100;SHT31;66602;48.922;2.414;2023-04-03T06:44:19;6.16;70.04
77100;SHT31;66602;48.922;2.414;2023-04-03T06:46:45;6.30;68.85
77100;SHT31;66602;48.922;2.414;2023-04-03T06:49:11;6.37;69.52
77100;SHT31;66602;48.922;2.414;2023-04-03T06:51:37;6.45;68.10
77100;SHT31;66602;48.922;2.414;2023-04-03T06:54:06;6.51;68.88
77100;SHT31;66602;48.922;2.414;2023-04-03T06:56:33;6.55;67.50
77100;SHT31;66602;48.922;2.414;2023-04-03T06:58:59;6.65;68.02
77100;SHT31;66602;48.922;2.414;2023-04-03T07:01:27;6.78;68.18
77100;SHT31;66602;48.922;2.414;2023-04-03T07:03:53;6.78;67.64
77100;SHT31;66602;48.922;2.414;2023-04-03T07:06:19;6.88;66.79
77100;SHT31;66602;48.922;2.414;2023-04-03T07:08:45;6.91;67.47
77100;SHT31;66602;48.922;2.414;2023-04-03T07:11:12;6.95;67.21
77100;SHT31;66602;48.922;2.414;2023-04-03T07:13:38;7.12;67.43
77100;SHT31;66602;48.922;2.414;2023-04-03T07:16:04;7.24;66.24
77100;SHT31;66602;48.922;2.414;2023-04-03T07:18:32;7.20;66.18
77100;SHT31;66602;48.922;2.414;2023-04-03T07:20:57;7.22;66.03
77100;SHT31;66602;48.922;2.414;2023-04-03T07:23:23;7.38;66.50
77100;SHT31;66602;48.922;2.414;2023-04-03T07:25:50;7.55;64.73
77100;SHT31;66602;48.922;2.414;2023-04-03T07:28:18;7.64;65.14
77100;SHT31;66602;48.922;2.414;2023-04-03T07:30:47;7.75;65.50
77100;SHT31;66602;48.922;2.414;2023-04-03T07:33:14;7.81;64.80
77100;SHT31;66602;48.922;2.414;2023-04-03T07:35:41;7.92;65.80
77100;SHT31;66602;48.922;2.414;2023-04-03T07:38:08;8.05;63.32
77100;SHT31;66602;48.922;2.414;2023-04-03T07:40:34;8.15;63.68
77100;SHT31;66602;48.922;2.414;2023-04-03T07:43:00;8.26;63.23
77100;SHT31;66602;48.922;2.414;2023-04-03T07:45:26;8.50;61.93
77100;SHT31;66602;48.922;2.414;2023-04-03T07:47:51;8.64;62.17
77100;SHT31;66602;48.922;2.414;2023-04-03T07:50:18;8.92;61.93
77100;SHT31;66602;48.922;2.414;2023-04-03T07:52:44;9.05;60.04
77100;SHT31;66602;48.922;2.414;2023-04-03T07:55:11;9.22;60.62
77100;SHT31;66602;48.922;2.414;2023-04-03T07:57:37;9.34;59.07
77100;SHT31;66602;48.922;2.414;2023-04-03T08:00:04;9.42;59.32
77100;SHT31;66602;48.922;2.414;2023-04-03T08:02:30;9.38;59.48
77100;SHT31;66602;48.922;2.414;2023-04-03T08:04:57;9.56;59.75
77100;SHT31;66602;48.922;2.414;2023-04-03T08:07:23;9.56;58.79
77100;SHT31;66602;48.922;2.414;2023-04-03T08:09:49;9.49;59.45
77100;SHT31;66602;48.922;2.414;2023-04-03T08:12:15;9.46;59.33
77100;SHT31;66602;48.922;2.414;2023-04-03T08:14:40;9.42;59.44
77100;SHT31;66602;48.922;2.414;2023-04-03T08:17:06;9.57;59.00
77100;SHT31;66602;48.922;2.414;2023-04-03T08:19:34;9.76;58.29
77100;SHT31;66602;48.922;2.414;2023-04-03T08:22:00;9.86;58.74
77100;SHT31;66602;48.922;2.414;2023-04-03T08:24:28;10.00;57.71
77100;SHT31;66602;48.922;2.414;2023-04-03T08:26:54;9.91;57.09
77100;SHT31;66602;48.922;2.414;2023-04-03T08:29:20;10.00;58.27
77100;SHT31;66602;48.922;2.414;2023-04-03T08:31:46;10.18;56.73
77100;SHT31;66602;48.922;2.414;2023-04-03T08:34:15;10.13;56.31
77100;SHT31;66602;48.922;2.414;2023-04-03T08:36:42;10.08;55.83
77100;SHT31;66602;48.922;2.414;2023-04-03T08:39:07;9.70;56.60
77100;SHT31;66602;48.922;2.414;2023-04-03T08:41:35;9.34;58.37
77100;SHT31;66602;48.922;2.414;2023-04-03T08:44:08;9.16;57.41
77100;SHT31;66602;48.922;2.414;2023-04-03T08:46:46;9.08;56.65
77100;SHT31;66602;48.922;2.414;2023-04-03T08:49:22;9.04;57.33
77100;SHT31;66602;48.922;2.414;2023-04-03T08:51:51;9.28;56.24
77100;SHT31;66602;48.922;2.414;2023-04-03T08:55:15;9.57;56.05
77100;SHT31;66602;48.922;2.414;2023-04-03T08:57:15;9.76;56.82
77100;SHT31;66602;48.922;2.414;2023-04-03T08:59:41;9.83;55.37
77100;SHT31;66602;48.922;2.414;2023-04-03T09:02:32;10.31;55.58
77100;SHT31;66602;48.922;2.414;2023-04-03T09:04:58;10.62;54.45
77100;SHT31;66602;48.922;2.414;2023-04-03T09:07:34;10.66;52.66
77100;SHT31;66602;48.922;2.414;2023-04-03T09:10:01;11.16;52.70
77100;SHT31;66602;48.922;2.414;2023-04-03T09:12:34;11.12;51.72
77100;SHT31;66602;48.922;2.414;2023-04-03T09:15:20;11.57;49.77
77100;SHT31;66602;48.922;2.414;2023-04-03T09:21:26;15.58;39.90
77100;SHT31;66602;48.922;2.414;2023-04-03T09:23:56;14.49;42.68
77100;SHT31;66602;48.922;2.414;2023-04-03T09:29:19;13.05;46.55
77100;SHT31;66602;48.922;2.414;2023-04-03T09:31:47;17.11;37.31
77100;SHT31;66602;48.922;2.414;2023-04-03T09:34:30;19.99;32.52
77100;SHT31;66602;48.922;2.414;2023-04-03T09:36:59;21.30;29.76
77100;SHT31;66602;48.922;2.414;2023-04-03T09:39:32;18.75;32.48
77100;SHT31;66602;48.922;2.414;2023-04-03T09:44:54;21.56;28.87
77100;SHT31;66602;48.922;2.414;2023-04-03T09:47:28;23.18;27.74
77100;SHT31;66602;48.922;2.414;2023-04-03T09:52:50;23.71;27.20
77100;SHT31;66602;48.922;2.414;2023-04-03T09:55:20;22.85;26.14
77100;SHT31;66602;48.922;2.414;2023-04-03T09:58:01;22.20;26.84
77100;SHT31;66602;48.922;2.414;2023-04-03T10:00:35;21.21;28.49
77100;SHT31;66602;48.922;2.414;2023-04-03T10:03:03;20.26;29.87
77100;SHT31;66602;48.922;2.414;2023-04-03T10:05:38;20.74;29.43
77100;SHT31;66602;48.922;2.414;2023-04-03T10:10:39;22.47;26.01
77100;SHT31;66602;48.922;2.414;2023-04-03T10:13:19;22.34;26.46
77100;SHT31;66602;48.922;2.414;2023-04-03T10:15:50;21.61;27.61
77100;SHT31;66602;48.922;2.414;2023-04-03T10:20:52;22.95;24.54
77100;SHT31;66602;48.922;2.414;2023-04-03T10:23:35;23.08;25.91
77100;SHT31;66602;48.922;2.414;2023-04-03T10:31:26;22.85;24.44
77100;SHT31;66602;48.922;2.414;2023-04-03T10:34:40;21.79;24.63
77100;SHT31;66602;48.922;2.414;2023-04-03T10:39:27;22.76;25.97
77100;SHT31;66602;48.922;2.414;2023-04-03T10:42:29;23.69;24.65
77100;SHT31;66602;48.922;2.414;2023-04-03T10:51:00;23.80;25.18
77100;SHT31;66602;48.922;2.414;2023-04-03T10:53:54;23.63;23.91
77100;SHT31;66602;48.922;2.414;2023-04-03T10:56:35;23.67;24.83
77100;SHT31;66602;48.922;2.414;2023-04-03T11:02:00;24.25;24.58
77100;SHT31;66602;48.922;2.414;2023-04-03T11:04:29;24.33;24.63
77100;SHT31;66602;48.922;2.414;2023-04-03T11:07:08;24.51;24.32
77100;SHT31;66602;48.922;2.414;2023-04-03T11:09:38;23.61;24.54
77100;SHT31;66602;48.922;2.414;2023-04-03T11:12:14;23.80;23.92
77100;SHT31;66602;48.922;2.414;2023-04-03T11:14:46;24.19;23.84
77100;SHT31;66602;48.922;2.414;2023-04-03T11:17:27;24.36;23.09
77100;SHT31;66602;48.922;2.414;2023-04-03T11:22:50;24.04;23.89
77100;SHT31;66602;48.922;2.414;2023-04-03T11:25:23;24.96;24.34
77100;SHT31;66602;48.922;2.414;2023-04-03T11:28:00;24.60;22.76
77100;SHT31;66602;48.922;2.414;2023-04-03T11:30:45;23.88;22.80
77100;SHT31;66602;48.922;2.414;2023-04-03T11:35:48;24.56;23.84
77100;SHT31;66602;48.922;2.414;2023-04-03T11:38:30;24.51;24.57
77100;SHT31;66602;48.922;2.414;2023-04-03T11:41:00;24.38;25.71
77100;SHT31;66602;48.922;2.414;2023-04-03T11:45:58;23.63;24.59
77100;SHT31;66602;48.922;2.414;2023-04-03T11:53:52;22.62;24.98
77100;SHT31;66602;48.922;2.414;2023-04-03T11:56:27;22.90;25.37
77100;SHT31;66602;48.922;2.414;2023-04-03T12:01:50;22.75;24.99
77100;SHT31;66602;48.922;2.414;2023-04-03T12:04:19;22.62;23.86
77100;SHT31;66602;48.922;2.414;2023-04-03T12:07:01;22.10;25.84
77100;SHT31;66602;48.922;2.414;2023-04-03T12:12:27;22.90;23.59
77100;SHT31;66602;48.922;2.414;2023-04-03T12:15:20;22.72;25.87
77100;SHT31;66602;48.922;2.414;2023-04-03T12:17:47;23.34;24.22
77100;SHT31;66602;48.922;2.414;2023-04-03T12:23:59;23.59;23.14
77100;SHT31;66602;48.922;2.414;2023-04-03T12:29:34;23.11;23.72
77100;SHT31;66602;48.922;2.414;2023-04-03T12:46:11;22.37;26.63
77100;SHT31;66602;48.922;2.414;2023-04-03T12:48:53;21.94;25.42
77100;SHT31;66602;48.922;2.414;2023-04-03T12:54:03;21.81;26.63
77100;SHT31;66602;48.922;2.414;2023-04-03T12:56:32;22.17;26.48
77100;SHT31;66602;48.922;2.414;2023-04-03T12:59:20;22.14;25.96
77100;SHT31;66602;48.922;2.414;2023-04-03T13:01:57;22.30;26.09
77100;SHT31;66602;48.922;2.414;2023-04-03T13:04:31;21.69;26.06
77100;SHT31;66602;48.922;2.414;2023-04-03T13:06:57;21.81;26.53
77100;SHT31;66602;48.922;2.414;2023-04-03T13:09:31;22.04;27.00
77100;SHT31;66602;48.922;2.414;2023-04-03T13:12:12;22.45;25.83
77100;SHT31;66602;48.922;2.414;2023-04-03T13:14:52;22.58;25.60
77100;SHT31;66602;48.922;2.414;2023-04-03T13:17:19;22.39;27.32
77100;SHT31;66602;48.922;2.414;2023-04-03T13:19:47;22.64;25.22
77100;SHT31;66602;48.922;2.414;2023-04-03T13:22:34;22.76;25.26
77100;SHT31;66602;48.922;2.414;2023-04-03T13:25:13;22.21;25.52
77100;SHT31;66602;48.922;2.414;2023-04-03T13:27:40;21.93;26.65
77100;SHT31;66602;48.922;2.414;2023-04-03T13:30:29;22.03;26.50
77100;SHT31;66602;48.922;2.414;2023-04-03T13:32:57;22.45;24.76
77100;SHT31;66602;48.922;2.414;2023-04-03T13:35:38;22.45;24.66
77100;SHT31;66602;48.922;2.414;2023-04-03T13:38:26;21.62;26.56
77100;SHT31;66602;48.922;2.414;2023-04-03T13:40:58;21.76;25.76
77100;SHT31;66602;48.922;2.414;2023-04-03T13:43:34;21.54;25.79
77100;SHT31;66602;48.922;2.414;2023-04-03T13:48:48;22.31;26.09
77100;SHT31;66602;48.922;2.414;2023-04-03T13:53:51;22.24;27.18
77100;SHT31;66602;48.922;2.414;2023-04-03T13:56:36;22.24;25.46
77100;SHT31;66602;48.922;2.414;2023-04-03T14:02:34;22.31;25.92
77100;SHT31;66602;48.922;2.414;2023-04-03T14:07:05;22.16;25.89
77100;SHT31;66602;48.922;2.414;2023-04-03T14:09:31;22.04;27.01
77100;SHT31;66602;48.922;2.414;2023-04-03T14:12:04;21.82;26.97
77100;SHT31;66602;48.922;2.414;2023-04-03T14:14:33;21.55;26.86
77100;SHT31;66602;48.922;2.414;2023-04-03T14:17:02;20.64;27.43
77100;SHT31;66602;48.922;2.414;2023-04-03T14:19:30;20.74;28.23
77100;SHT31;66602;48.922;2.414;2023-04-03T14:21:58;21.07;26.94
77100;SHT31;66602;48.922;2.414;2023-04-03T14:24:24;21.42;26.70
77100;SHT31;66602;48.922;2.414;2023-04-03T14:26:52;21.63;27.25
77100;SHT31;66602;48.922;2.414;2023-04-03T14:29:18;21.35;26.71
77100;SHT31;66602;48.922;2.414;2023-04-03T14:31:46;21.75;26.66
77100;SHT31;66602;48.922;2.414;2023-04-03T14:34:14;21.76;27.50
77100;SHT31;66602;48.922;2.414;2023-04-03T14:36:40;21.82;27.55
77100;SHT31;66602;48.922;2.414;2023-04-03T14:39:08;21.85;26.34
77100;SHT31;66602;48.922;2.414;2023-04-03T14:41:35;21.76;27.01
77100;SHT31;66602;48.922;2.414;2023-04-03T14:44:01;21.81;27.54
77100;SHT31;66602;48.922;2.414;2023-04-03T14:46:39;22.30;26.13
77100;SHT31;66602;48.922;2.414;2023-04-03T14:49:19;22.10;26.78
77100;SHT31;66602;48.922;2.414;2023-04-03T14:51:46;21.96;26.33
77100;SHT31;66602;48.922;2.414;2023-04-03T14:54:14;21.76;27.96
77100;SHT31;66602;48.922;2.414;2023-04-03T14:56:40;21.94;27.09
77100;SHT31;66602;48.922;2.414;2023-04-03T14:59:11;21.66;27.31
77100;SHT31;66602;48.922;2.414;2023-04-03T15:01:39;21.44;26.91
77100;SHT31;66602;48.922;2.414;2023-04-03T15:04:31;21.27;27.33
77100;SHT31;66602;48.922;2.414;2023-04-03T15:06:56;20.66;28.04
77100;SHT31;66602;48.922;2.414;2023-04-03T15:09:26;20.56;29.74
77100;SHT31;66602;48.922;2.414;2023-04-03T15:11:54;20.74;29.42
77100;SHT31;66602;48.922;2.414;2023-04-03T15:14:20;20.26;29.09
77100;SHT31;66602;48.922;2.414;2023-04-03T15:16:45;20.12;29.25
77100;SHT31;66602;48.922;2.414;2023-04-03T15:19:12;20.04;28.83
77100;SHT31;66602;48.922;2.414;2023-04-03T15:21:38;19.94;29.30
77100;SHT31;66602;48.922;2.414;2023-04-03T15:24:04;19.77;29.23
77100;SHT31;66602;48.922;2.414;2023-04-03T15:26:31;19.79;30.49
77100;SHT31;66602;48.922;2.414;2023-04-03T15:28:57;20.02;29.67
77100;SHT31;66602;48.922;2.414;2023-04-03T15:31:22;20.02;29.26
77100;SHT31;66602;48.922;2.414;2023-04-03T15:33:48;19.84;29.55
77100;SHT31;66602;48.922;2.414;2023-04-03T15:36:13;18.81;30.35
77100;SHT31;66602;48.922;2.414;2023-04-03T15:38:39;18.21;32.36
77100;SHT31;66602;48.922;2.414;2023-04-03T15:41:05;18.61;32.42
77100;SHT31;66602;48.922;2.414;2023-04-03T15:43:31;18.95;31.32
77100;SHT31;66602;48.922;2.414;2023-04-03T15:45:58;18.98;31.77
77100;SHT31;66602;48.922;2.414;2023-04-03T15:48:24;18.66;32.38
77100;SHT31;66602;48.922;2.414;2023-04-03T15:50:50;18.65;32.07
77100;SHT31;66602;48.922;2.414;2023-04-03T15:53:16;18.36;32.04
77100;SHT31;66602;48.922;2.414;2023-04-03T15:55:42;17.49;34.07
77100;SHT31;66602;48.922;2.414;2023-04-03T15:58:07;16.87;34.55
77100;SHT31;66602;48.922;2.414;2023-04-03T16:00:33;16.78;35.14
77100;SHT31;66602;48.922;2.414;2023-04-03T16:03:05;16.88;35.62
77100;SHT31;66602;48.922;2.414;2023-04-03T16:05:31;17.39;36.45
77100;SHT31;66602;48.922;2.414;2023-04-03T16:07:58;17.27;35.11
77100;SHT31;66602;48.922;2.414;2023-04-03T16:10:25;17.48;33.90
77100;SHT31;66602;48.922;2.414;2023-04-03T16:12:51;17.55;34.27
77100;SHT31;66602;48.922;2.414;2023-04-03T16:15:17;17.15;35.33
77100;SHT31;66602;48.922;2.414;2023-04-03T16:17:43;16.78;35.57
77100;SHT31;66602;48.922;2.414;2023-04-03T16:20:09;16.61;35.92
77100;SHT31;66602;48.922;2.414;2023-04-03T16:22:35;16.69;36.19
77100;SHT31;66602;48.922;2.414;2023-04-03T16:25:06;16.55;35.66
77100;SHT31;66602;48.922;2.414;2023-04-03T16:27:33;16.29;36.47
77100;SHT31;66602;48.922;2.414;2023-04-03T16:29:58;15.91;36.94
77100;SHT31;66602;48.922;2.414;2023-04-03T16:32:26;15.97;36.71
77100;SHT31;66602;48.922;2.414;2023-04-03T16:34:53;15.78;37.85
77100;SHT31;66602;48.922;2.414;2023-04-03T16:37:18;15.82;37.97
77100;SHT31;66602;48.922;2.414;2023-04-03T16:39:45;15.91;37.76
77100;SHT31;66602;48.922;2.414;2023-04-03T16:42:10;15.50;38.16
77100;SHT31;66602;48.922;2.414;2023-04-03T16:44:36;15.30;39.60
77100;SHT31;66602;48.922;2.414;2023-04-03T16:47:02;15.09;39.81
77100;SHT31;66602;48.922;2.414;2023-04-03T16:49:30;14.32;40.53
77100;SHT31;66602;48.922;2.414;2023-04-03T16:51:58;13.62;43.33
77100;SHT31;66602;48.922;2.414;2023-04-03T16:54:24;13.56;43.81
77100;SHT31;66602;48.922;2.414;2023-04-03T16:56:52;14.11;41.52
77100;SHT31;66602;48.922;2.414;2023-04-03T16:59:19;14.55;40.44
77100;SHT31;66602;48.922;2.414;2023-04-03T17:01:45;14.79;41.45
77100;SHT31;66602;48.922;2.414;2023-04-03T17:04:10;14.96;41.43
77100;SHT31;66602;48.922;2.414;2023-04-03T17:06:38;14.89;41.17
77100;SHT31;66602;48.922;2.414;2023-04-03T17:09:04;14.99;40.24
77100;SHT31;66602;48.922;2.414;2023-04-03T17:11:30;15.02;39.28
77100;SHT31;66602;48.922;2.414;2023-04-03T17:13:56;15.03;39.79
77100;SHT31;66602;48.922;2.414;2023-04-03T17:16:23;15.02;39.63
77100;SHT31;66602;48.922;2.414;2023-04-03T17:18:49;14.83;40.78
77100;SHT31;66602;48.922;2.414;2023-04-03T17:21:15;14.57;41.33